createdAt,value
2023-03-17T00:03:03.379Z,1.73
2023-03-17T00:13:04.661Z,1.92
2023-03-17T00:23:05.945Z,1.85
2023-03-17T00:33:07.201Z,1.90
2023-03-17T00:43:08.460Z,2.00
2023-03-17T00:53:09.775Z,1.73
2023-03-17T01:03:11.008Z,1.90
2023-03-17T01:13:12.354Z,1.95
2023-03-17T01:23:13.653Z,1.70
2023-03-17T01:33:14.891Z,1.88
2023-03-17T01:43:16.172Z,1.50
2023-03-17T01:53:17.435Z,2.00
2023-03-17T02:03:18.719Z,1.80
2023-03-17T02:13:19.956Z,1.77
2023-03-17T02:23:21.219Z,2.13
2023-03-17T02:33:22.470Z,1.77
2023-03-17T02:43:23.762Z,2.00
2023-03-17T02:53:25.024Z,1.80
2023-03-17T03:03:26.298Z,2.03
2023-03-17T03:13:27.576Z,2.03
2023-03-17T03:23:28.835Z,2.00
2023-03-17T03:33:30.109Z,1.88
2023-03-17T03:43:31.350Z,1.88
2023-03-17T03:53:32.596Z,1.80
2023-03-17T04:03:33.940Z,1.90
2023-03-17T04:13:35.238Z,1.80
2023-03-17T04:23:36.483Z,1.67
2023-03-17T04:33:37.732Z,2.03
2023-03-17T04:43:39.002Z,2.13
2023-03-17T04:53:40.256Z,2.55
2023-03-17T05:03:41.493Z,1.90
2023-03-17T05:13:42.771Z,2.00
2023-03-17T05:23:44.073Z,1.90
2023-03-17T05:33:45.334Z,2.00
2023-03-17T05:43:46.570Z,2.20
2023-03-17T05:53:47.810Z,2.05
2023-03-17T06:03:49.061Z,2.05
2023-03-17T06:13:50.411Z,2.00
2023-03-17T06:23:51.703Z,2.20
2023-03-17T06:33:52.957Z,2.08
2023-03-17T06:43:54.234Z,1.70
2023-03-17T06:53:55.587Z,2.20
2023-03-17T07:03:56.833Z,2.45
2023-03-17T07:13:58.103Z,2.28
2023-03-17T07:23:59.356Z,2.25
2023-03-17T07:34:00.599Z,2.20
2023-03-17T07:44:01.896Z,2.10
2023-03-17T07:54:03.176Z,1.77
2023-03-17T08:04:04.563Z,1.90
2023-03-17T08:14:05.833Z,2.00
2023-03-17T08:24:07.087Z,1.80
2023-03-17T08:34:08.308Z,2.00
2023-03-17T08:44:09.559Z,1.80
2023-03-17T08:54:10.814Z,2.05
2023-03-17T09:04:12.106Z,1.88
2023-03-17T09:14:13.407Z,1.83
2023-03-17T09:24:14.690Z,1.83
2023-03-17T09:34:15.964Z,1.80
2023-03-17T09:44:17.229Z,1.83
2023-03-17T09:54:18.499Z,1.50
2023-03-17T10:04:19.765Z,1.65
2023-03-17T10:14:21.019Z,1.73
2023-03-17T10:24:22.269Z,1.95
2023-03-17T10:34:23.494Z,2.10
2023-03-17T10:44:24.759Z,1.65
2023-03-17T10:54:26.089Z,1.88
2023-03-17T11:04:27.317Z,1.58
2023-03-17T11:14:28.561Z,1.65
2023-03-17T11:24:31.484Z,1.50
2023-03-17T11:34:33.381Z,1.80
2023-03-17T11:44:34.616Z,1.73
2023-03-17T11:54:35.865Z,1.52
2023-03-17T12:04:37.194Z,1.73
2023-03-17T12:14:38.455Z,1.70
2023-03-17T12:24:39.738Z,1.60
2023-03-17T12:34:41.030Z,1.40
2023-03-17T12:44:42.293Z,1.70
2023-03-17T12:54:43.589Z,1.52
2023-03-17T13:04:44.888Z,1.80
2023-03-17T13:14:46.156Z,1.60
2023-03-17T13:24:47.448Z,1.58
2023-03-17T13:34:48.706Z,1.60
2023-03-17T13:44:50.009Z,1.50
2023-03-17T13:54:51.288Z,1.45
2023-03-17T14:04:52.547Z,1.40
2023-03-17T14:14:53.807Z,1.70
2023-03-17T14:24:56.396Z,1.60
2023-03-17T14:34:57.687Z,1.60
2023-03-17T14:44:58.978Z,1.60
2023-03-17T14:55:00.221Z,1.40
2023-03-17T15:05:01.480Z,1.73
2023-03-17T15:15:02.748Z,1.50
2023-03-17T15:25:04.143Z,1.70
2023-03-17T15:35:05.387Z,1.70
2023-03-17T15:45:06.650Z,1.80
2023-03-17T15:55:07.918Z,1.40
2023-03-17T16:05:09.188Z,1.80
2023-03-17T16:15:22.598Z,1.75
2023-03-17T16:25:24.861Z,1.80
2023-03-17T16:35:26.174Z,1.60
2023-03-17T16:45:27.441Z,1.60
2023-03-17T16:55:28.703Z,1.48
2023-03-17T17:05:30.026Z,1.35
2023-03-17T17:15:31.314Z,1.70
2023-03-17T17:25:32.868Z,1.70
2023-03-17T17:35:34.347Z,1.55
2023-03-17T17:45:35.677Z,1.27
2023-03-17T17:55:37.006Z,1.55
2023-03-17T18:05:38.274Z,1.33
2023-03-17T18:15:39.495Z,1.30
2023-03-17T18:25:40.742Z,1.33
2023-03-17T18:35:42.020Z,1.73
2023-03-17T18:45:43.337Z,1.40
2023-03-17T18:55:44.642Z,1.77
2023-03-17T19:05:45.935Z,1.90
2023-03-17T19:15:47.238Z,1.65
2023-03-17T19:25:48.496Z,1.60
2023-03-17T19:35:49.789Z,1.80
2023-03-17T19:45:51.109Z,1.63
2023-03-17T19:55:52.455Z,1.60
2023-03-17T20:05:53.763Z,1.80
2023-03-17T20:15:55.058Z,2.00
2023-03-17T20:25:56.389Z,1.60
2023-03-17T20:35:57.822Z,1.80
2023-03-17T20:45:59.161Z,1.90
2023-03-17T20:56:00.464Z,1.80
2023-03-17T21:06:01.743Z,1.80
2023-03-17T21:16:03.021Z,1.92
2023-03-17T21:26:04.305Z,1.65
2023-03-17T21:36:05.675Z,1.90
2023-03-17T21:46:07.090Z,2.15
2023-03-17T21:56:08.703Z,2.50
2023-03-17T22:06:10.173Z,2.10
2023-03-17T22:16:11.494Z,2.30
2023-03-17T22:26:12.784Z,2.47
2023-03-17T22:36:14.113Z,2.50
2023-03-17T22:46:15.441Z,2.30
2023-03-17T22:56:16.753Z,2.20
2023-03-17T23:06:18.098Z,2.22
2023-03-17T23:16:19.385Z,2.72
2023-03-17T23:26:20.681Z,2.47
2023-03-17T23:36:21.992Z,2.35
2023-03-17T23:46:23.289Z,2.75
2023-03-17T23:56:24.534Z,3.03
